createdAt,value
2019-02-04T00:01:38.088Z,9.27
2019-02-04T00:04:08.370Z,9.37
2019-02-04T00:06:38.773Z,11.80
2019-02-04T00:09:09.832Z,9.10
2019-02-04T00:11:40.573Z,8.37
2019-02-04T00:14:11.256Z,9.30
2019-02-04T00:16:41.873Z,9.07
2019-02-04T00:19:12.153Z,8.00
2019-02-04T00:21:42.519Z,8.37
2019-02-04T00:24:12.790Z,9.43
2019-02-04T00:26:51.314Z,7.53
2019-02-04T00:29:14.989Z,9.33
2019-02-04T00:31:45.295Z,9.27
2019-02-04T00:34:15.584Z,9.77
2019-02-04T00:36:45.882Z,9.60
2019-02-04T00:39:16.166Z,8.07
2019-02-04T00:41:46.540Z,10.13
2019-02-04T00:44:16.993Z,12.80
2019-02-04T00:46:52.210Z,8.47
2019-02-04T00:49:19.268Z,8.43
2019-02-04T00:51:50.771Z,6.20
2019-02-04T00:54:21.227Z,6.60
2019-02-04T00:56:51.541Z,10.43
2019-02-04T00:59:21.910Z,9.47
2019-02-04T01:01:52.298Z,8.70
2019-02-04T01:04:22.761Z,8.60
2019-02-04T01:06:53.454Z,9.97
2019-02-04T01:09:23.884Z,9.23
2019-02-04T01:11:54.222Z,9.90
2019-02-04T01:14:24.508Z,8.63
2019-02-04T01:17:03.229Z,11.57
2019-02-04T01:19:26.754Z,7.40
2019-02-04T01:21:58.173Z,7.90
2019-02-04T01:24:28.461Z,8.37
2019-02-04T01:26:58.814Z,10.97
2019-02-04T01:29:29.123Z,11.93
2019-02-04T01:31:59.434Z,10.87
2019-02-04T01:34:29.740Z,11.53
2019-02-04T01:37:00.019Z,11.87
2019-02-04T01:39:30.404Z,10.47
2019-02-04T01:42:00.714Z,12.00
2019-02-04T01:44:31.020Z,9.80
2019-02-04T01:47:01.413Z,10.17
2019-02-04T01:49:31.733Z,14.13
2019-02-04T01:52:02.032Z,12.20
2019-02-04T01:54:32.348Z,10.13
2019-02-04T01:57:02.641Z,12.37
2019-02-04T01:59:33.286Z,10.97
2019-02-04T02:02:03.581Z,9.90
2019-02-04T02:04:33.935Z,11.37
2019-02-04T02:07:04.672Z,12.23
2019-02-04T02:09:34.977Z,10.70
2019-02-04T02:12:05.830Z,12.77
2019-02-04T02:14:36.128Z,15.00
2019-02-04T02:17:06.494Z,10.50
2019-02-04T02:19:37.987Z,14.90
2019-02-04T02:22:08.239Z,13.73
2019-02-04T02:24:39.118Z,12.63
2019-02-04T02:27:09.425Z,15.90
2019-02-04T02:29:40.170Z,11.03
2019-02-04T02:32:10.581Z,14.93
2019-02-04T02:34:40.957Z,12.60
2019-02-04T02:37:11.289Z,14.90
2019-02-04T02:39:41.590Z,14.43
2019-02-04T02:42:11.883Z,15.10
2019-02-04T02:44:42.172Z,12.07
2019-02-04T02:47:12.461Z,14.57
2019-02-04T02:49:42.769Z,16.20
2019-02-04T02:52:13.260Z,14.67
2019-02-04T02:54:43.594Z,18.03
2019-02-04T02:57:13.955Z,16.37
2019-02-04T02:59:44.343Z,15.27
2019-02-04T03:02:14.652Z,15.80
2019-02-04T03:04:45.142Z,16.57
2019-02-04T03:07:15.545Z,17.87
2019-02-04T03:09:45.857Z,17.00
2019-02-04T03:12:16.184Z,19.43
2019-02-04T03:14:46.548Z,15.53
2019-02-04T03:17:16.844Z,16.37
2019-02-04T03:19:47.294Z,17.73
2019-02-04T03:22:17.570Z,15.00
2019-02-04T03:24:47.918Z,16.50
2019-02-04T03:27:18.290Z,17.20
2019-02-04T03:29:48.616Z,17.57
2019-02-04T03:32:19.101Z,17.93
2019-02-04T03:34:49.562Z,17.00
2019-02-04T03:37:19.925Z,19.83
2019-02-04T03:39:50.236Z,18.73
2019-02-04T03:42:20.575Z,19.40
2019-02-04T03:44:51.100Z,21.27
2019-02-04T03:47:21.377Z,24.23
2019-02-04T03:49:51.801Z,21.87
2019-02-04T03:52:22.155Z,21.63
2019-02-04T03:54:52.598Z,23.93
2019-02-04T03:57:22.893Z,20.77
2019-02-04T03:59:53.320Z,25.10
2019-02-04T04:02:23.697Z,22.03
2019-02-04T04:04:54.030Z,22.00
2019-02-04T04:07:24.320Z,20.70
2019-02-04T04:09:54.633Z,20.80
2019-02-04T04:12:24.912Z,17.70
2019-02-04T04:14:55.468Z,23.03
2019-02-04T04:17:25.782Z,21.73
2019-02-04T04:19:56.274Z,27.53
2019-02-04T04:22:26.563Z,24.87
2019-02-04T04:24:57.152Z,27.10
2019-02-04T04:27:27.453Z,24.40
2019-02-04T04:29:57.742Z,25.83
2019-02-04T04:32:30.022Z,24.80
2019-02-04T04:35:00.048Z,23.63
2019-02-04T04:37:30.659Z,21.73
2019-02-04T04:40:00.946Z,25.17
2019-02-04T04:42:31.237Z,25.93
2019-02-04T04:45:01.530Z,29.10
2019-02-04T04:47:31.822Z,27.33
2019-02-04T04:50:02.101Z,24.30
2019-02-04T04:52:32.397Z,25.27
2019-02-04T04:55:02.684Z,27.30
2019-02-04T04:57:32.988Z,26.63
2019-02-04T05:00:03.291Z,26.37
2019-02-04T05:02:33.579Z,25.90
2019-02-04T05:05:04.674Z,29.37
2019-02-04T05:07:35.037Z,27.97
2019-02-04T05:10:06.726Z,28.80
2019-02-04T05:12:37.056Z,26.87
2019-02-04T05:15:08.549Z,28.77
2019-02-04T05:17:39.173Z,30.77
2019-02-04T05:20:10.329Z,31.83
2019-02-04T05:22:41.074Z,27.43
2019-02-04T05:25:13.146Z,26.83
2019-02-04T05:27:43.523Z,28.70
2019-02-04T05:30:19.238Z,27.13
2019-02-04T05:32:49.524Z,27.13
2019-02-04T05:35:20.017Z,20.93
2019-02-04T05:37:50.378Z,25.63
2019-02-04T05:40:20.657Z,24.93
2019-02-04T05:42:51.343Z,23.07
2019-02-04T05:45:22.001Z,21.60
2019-02-04T05:47:52.382Z,20.03
2019-02-04T05:50:22.658Z,23.80
2019-02-04T05:52:52.967Z,23.97
2019-02-04T05:55:23.839Z,24.57
2019-02-04T05:57:54.294Z,21.33
2019-02-04T06:00:38.852Z,20.97
2019-02-04T06:03:09.153Z,19.90
2019-02-04T06:05:39.615Z,21.53
2019-02-04T06:08:10.024Z,19.33
2019-02-04T06:10:40.569Z,19.30
2019-02-04T06:13:10.882Z,24.83
2019-02-04T06:15:41.605Z,24.43
2019-02-04T06:18:11.899Z,31.07
2019-02-04T06:20:42.193Z,33.83
2019-02-04T06:23:12.479Z,31.27
2019-02-04T06:25:42.762Z,29.70
2019-02-04T06:28:13.049Z,30.93
2019-02-04T06:30:43.435Z,32.17
2019-02-04T06:33:14.366Z,29.17
2019-02-04T06:35:44.649Z,29.77
2019-02-04T06:38:14.962Z,28.23
2019-02-04T06:40:45.254Z,35.23
2019-02-04T06:43:15.565Z,31.30
2019-02-04T06:45:46.181Z,31.03
2019-02-04T06:48:16.591Z,31.77
2019-02-04T06:50:46.889Z,34.27
2019-02-04T06:53:17.200Z,29.07
2019-02-04T06:55:47.630Z,28.40
2019-02-04T06:58:17.941Z,28.80
2019-02-04T07:00:48.222Z,26.80
2019-02-04T07:03:18.541Z,28.47
2019-02-04T07:05:48.835Z,21.17
2019-02-04T07:08:19.204Z,25.67
2019-02-04T07:10:49.582Z,27.70
2019-02-04T07:13:20.343Z,30.57
2019-02-04T07:15:50.690Z,27.33
2019-02-04T07:18:21.019Z,30.83
2019-02-04T07:20:51.325Z,31.47
2019-02-04T07:23:21.705Z,31.77
2019-02-04T07:25:52.012Z,28.47
2019-02-04T07:28:22.300Z,28.63
2019-02-04T07:30:52.656Z,34.27
2019-02-04T07:33:22.940Z,27.67
2019-02-04T07:35:53.339Z,29.70
2019-02-04T07:38:23.741Z,32.30
2019-02-04T07:40:54.034Z,29.60
2019-02-04T07:43:24.345Z,30.40
2019-02-04T07:45:54.657Z,28.23
2019-02-04T07:48:25.069Z,34.07
2019-02-04T07:50:55.403Z,34.17
2019-02-04T07:53:25.762Z,34.60
2019-02-04T07:55:56.085Z,33.60
2019-02-04T07:58:26.556Z,33.17
2019-02-04T08:00:56.877Z,36.20
2019-02-04T08:03:27.178Z,33.27
2019-02-04T08:05:57.526Z,31.97
2019-02-04T08:08:28.310Z,29.00
2019-02-04T08:10:58.693Z,33.73
2019-02-04T08:13:29.014Z,30.30
2019-02-04T08:15:59.335Z,27.17
2019-02-04T08:18:29.661Z,26.93
2019-02-04T08:20:59.952Z,29.20
2019-02-04T08:23:30.257Z,27.80
2019-02-04T08:26:00.674Z,28.73
2019-02-04T08:28:30.969Z,25.43
2019-02-04T08:31:01.362Z,26.20
2019-02-04T08:33:31.654Z,27.53
2019-02-04T08:36:02.141Z,29.70
2019-02-04T08:38:32.509Z,26.70
2019-02-04T08:41:02.862Z,32.63
2019-02-04T08:43:34.387Z,28.77
2019-02-04T08:46:04.678Z,27.60
2019-02-04T08:48:35.085Z,23.67
2019-02-04T08:51:07.084Z,23.90
2019-02-04T08:53:38.302Z,26.50
2019-02-04T08:56:08.632Z,23.73
2019-02-04T08:58:41.243Z,19.23
2019-02-04T09:01:11.665Z,24.97
2019-02-04T09:03:42.283Z,20.17
2019-02-04T09:06:12.825Z,19.47
2019-02-04T09:08:43.105Z,22.33
2019-02-04T09:11:13.427Z,23.37
2019-02-04T09:13:43.747Z,21.23
2019-02-04T09:16:15.266Z,21.53
2019-02-04T09:18:45.575Z,21.63
2019-02-04T09:21:15.901Z,22.73
2019-02-04T09:23:46.187Z,22.63
2019-02-04T09:26:16.647Z,19.90
2019-02-04T09:28:47.060Z,17.97
2019-02-04T09:31:17.746Z,21.00
2019-02-04T09:33:48.159Z,16.93
2019-02-04T09:36:18.515Z,16.23
2019-02-04T09:38:48.796Z,18.63
2019-02-04T09:41:19.105Z,23.53
2019-02-04T09:43:49.460Z,16.73
2019-02-04T09:46:19.857Z,14.97
2019-02-04T09:48:51.159Z,16.07
2019-02-04T09:51:21.484Z,16.40
2019-02-04T09:53:52.136Z,19.53
2019-02-04T09:56:22.574Z,20.37
2019-02-04T09:58:53.153Z,16.33
2019-02-04T10:01:23.489Z,16.57
2019-02-04T10:03:53.834Z,15.70
2019-02-04T10:06:24.145Z,16.00
2019-02-04T10:08:54.541Z,40.90
2019-02-04T10:11:24.849Z,63.60
2019-02-04T10:13:55.409Z,19.43
2019-02-04T10:16:25.721Z,17.40
2019-02-04T10:18:56.029Z,22.10
2019-02-04T10:21:26.452Z,21.13
2019-02-04T10:23:56.738Z,17.30
2019-02-04T10:26:27.175Z,18.00
2019-02-04T10:28:57.648Z,15.27
2019-02-04T10:31:28.099Z,18.13
2019-02-04T10:33:58.373Z,13.23
2019-02-04T10:36:28.767Z,15.63
2019-02-04T10:38:59.525Z,11.83
2019-02-04T10:41:29.890Z,14.50
2019-02-04T10:44:00.407Z,14.53
2019-02-04T10:46:30.709Z,14.47
2019-02-04T10:49:01.054Z,13.30
2019-02-04T10:51:31.426Z,13.47
2019-02-04T10:54:01.736Z,15.23
2019-02-04T10:56:32.099Z,14.80
2019-02-04T10:59:02.446Z,14.23
2019-02-04T11:01:32.836Z,14.37
2019-02-04T11:04:03.186Z,11.83
2019-02-04T11:06:33.758Z,12.27
2019-02-04T11:09:07.153Z,15.83
2019-02-04T11:11:37.531Z,19.80
2019-02-04T11:14:08.234Z,11.63
2019-02-04T11:16:38.723Z,13.07
2019-02-04T11:19:09.568Z,16.30
2019-02-04T11:21:40.076Z,14.87
2019-02-04T11:24:10.501Z,14.80
2019-02-04T11:26:40.987Z,13.87
2019-02-04T11:29:14.445Z,13.27
2019-02-04T11:31:46.092Z,15.47
2019-02-04T11:34:16.590Z,14.77
2019-02-04T11:36:46.956Z,14.80
2019-02-04T11:39:17.534Z,14.67
2019-02-04T11:41:47.845Z,18.03
2019-02-04T11:44:18.207Z,16.40
2019-02-04T11:46:48.444Z,15.37
2019-02-04T11:49:18.748Z,16.57
2019-02-04T11:51:49.029Z,14.57
2019-02-04T11:54:19.440Z,13.87
2019-02-04T11:56:49.759Z,15.57
2019-02-04T11:59:20.151Z,13.43
2019-02-04T12:01:50.547Z,14.27
2019-02-04T12:04:20.860Z,14.63
2019-02-04T12:06:51.121Z,14.43
2019-02-04T12:09:21.421Z,12.17
2019-02-04T12:11:52.044Z,10.60
2019-02-04T12:14:22.365Z,13.53
2019-02-04T12:16:53.863Z,13.43
2019-02-04T12:19:24.222Z,11.57
2019-02-04T12:21:54.564Z,13.10
2019-02-04T12:24:24.936Z,14.23
2019-02-04T12:26:55.219Z,12.63
2019-02-04T12:29:25.778Z,11.73
2019-02-04T12:31:56.202Z,10.27
2019-02-04T12:34:26.715Z,10.17
2019-02-04T12:36:59.109Z,11.30
2019-02-04T12:39:31.099Z,11.53
2019-02-04T12:42:01.346Z,10.17
2019-02-04T12:44:31.744Z,10.27
2019-02-04T12:47:02.114Z,10.83
2019-02-04T12:49:32.438Z,9.57
2019-02-04T12:52:03.160Z,11.80
2019-02-04T12:54:33.525Z,10.00
2019-02-04T12:57:04.242Z,10.37
2019-02-04T12:59:34.904Z,10.07
2019-02-04T13:02:05.424Z,9.63
2019-02-04T13:04:36.798Z,35.03
2019-02-04T13:07:07.078Z,42.60
2019-02-04T13:09:39.695Z,35.73
2019-02-04T13:12:10.045Z,9.67
2019-02-04T13:14:40.348Z,9.97
2019-02-04T13:17:10.726Z,8.97
2019-02-04T13:19:41.134Z,10.20
2019-02-04T13:22:11.463Z,9.50
2019-02-04T13:24:41.773Z,12.10
2019-02-04T13:27:12.317Z,8.47
2019-02-04T13:29:42.620Z,9.83
2019-02-04T13:32:13.309Z,8.23
2019-02-04T13:34:43.750Z,12.07
2019-02-04T13:37:14.097Z,8.93
2019-02-04T13:39:44.485Z,10.07
2019-02-04T13:42:14.761Z,10.70
2019-02-04T13:44:45.380Z,10.83
2019-02-04T13:47:15.737Z,16.83
2019-02-04T13:49:46.078Z,13.87
2019-02-04T13:52:16.357Z,14.47
2019-02-04T13:54:46.779Z,13.70
2019-02-04T13:57:17.243Z,10.33
2019-02-04T13:59:47.638Z,10.77
2019-02-04T14:02:18.107Z,13.73
2019-02-04T14:04:48.449Z,11.17
2019-02-04T14:07:21.359Z,12.73
2019-02-04T14:09:50.777Z,12.97
2019-02-04T14:12:21.101Z,11.60
2019-02-04T14:14:51.438Z,14.40
2019-02-04T14:17:24.329Z,13.27
2019-02-04T14:19:53.855Z,13.80
2019-02-04T14:22:24.145Z,14.30
2019-02-04T14:24:54.672Z,13.27
2019-02-04T14:27:25.008Z,15.27
2019-02-04T14:29:55.436Z,12.60
2019-02-04T14:32:25.717Z,13.67
2019-02-04T14:34:56.073Z,14.77
2019-02-04T14:37:26.858Z,30.07
2019-02-04T14:39:57.141Z,18.50
2019-02-04T14:42:27.439Z,15.70
2019-02-04T14:45:13.126Z,16.77
2019-02-04T14:48:43.091Z,14.17
2019-02-04T14:52:06.629Z,62.43
2019-02-04T14:55:21.497Z,26.97
2019-02-04T14:58:22.130Z,14.30
2019-02-04T15:01:28.629Z,16.17
2019-02-04T15:04:35.851Z,14.27
2019-02-04T15:07:37.442Z,14.27
2019-02-04T15:10:51.180Z,15.10
2019-02-04T15:13:45.896Z,15.83
2019-02-04T15:16:27.697Z,15.23
2019-02-04T15:19:25.684Z,15.37
2019-02-04T15:22:07.525Z,15.50
2019-02-04T15:25:10.273Z,18.47
2019-02-04T15:27:56.258Z,18.97
2019-02-04T15:30:53.547Z,16.30
2019-02-04T15:33:34.669Z,19.13
2019-02-04T15:36:43.785Z,20.83
2019-02-04T15:39:49.633Z,19.17
2019-02-04T15:43:11.115Z,19.10
2019-02-04T15:46:31.390Z,19.97
2019-02-04T15:49:58.354Z,20.57
2019-02-04T15:52:28.657Z,17.30
2019-02-04T15:54:59.179Z,18.13
2019-02-04T15:57:32.209Z,16.87
2019-02-04T16:00:02.513Z,17.60
2019-02-04T16:02:34.698Z,18.00
2019-02-04T16:05:06.739Z,16.13
2019-02-04T16:07:38.491Z,16.33
2019-02-04T16:10:12.945Z,17.07
2019-02-04T16:12:48.157Z,18.03
2019-02-04T16:15:20.094Z,14.57
2019-02-04T16:17:52.045Z,17.93
2019-02-04T16:20:24.316Z,16.90
2019-02-04T16:22:58.848Z,15.93
2019-02-04T16:25:30.561Z,16.63
2019-02-04T16:28:02.662Z,16.43
2019-02-04T16:30:37.221Z,20.73
2019-02-04T16:33:08.793Z,85.43
2019-02-04T16:35:39.822Z,106.30
2019-02-04T16:38:12.748Z,205.13
2019-02-04T16:40:44.429Z,162.67
2019-02-04T16:43:17.218Z,32.03
2019-02-04T16:45:48.831Z,17.23
2019-02-04T16:48:21.061Z,17.30
2019-02-04T16:51:10.649Z,13.93
2019-02-04T16:53:28.806Z,13.70
2019-02-04T16:56:01.504Z,12.37
2019-02-04T16:58:32.821Z,15.37
2019-02-04T17:01:04.740Z,13.73
2019-02-04T17:03:36.872Z,12.30
2019-02-04T17:06:08.613Z,11.40
2019-02-04T17:08:40.675Z,12.00
2019-02-04T17:11:12.446Z,10.63
2019-02-04T17:13:46.120Z,14.70
2019-02-04T17:16:18.459Z,9.47
2019-02-04T17:18:51.174Z,9.77
2019-02-04T17:21:21.495Z,11.60
2019-02-04T17:23:54.096Z,13.10
2019-02-04T17:26:25.942Z,10.30
2019-02-04T17:28:56.548Z,8.93
2019-02-04T17:31:28.405Z,11.70
2019-02-04T17:33:59.160Z,9.03
2019-02-04T17:36:29.477Z,11.13
2019-02-04T17:38:59.769Z,12.17
2019-02-04T17:41:30.253Z,10.80
2019-02-04T17:44:00.572Z,10.90
2019-02-04T17:46:30.864Z,11.43
2019-02-04T17:49:01.168Z,14.23
2019-02-04T17:51:32.103Z,20.77
2019-02-04T17:54:05.060Z,10.20
2019-02-04T17:56:34.542Z,10.53
2019-02-04T17:59:05.811Z,11.30
2019-02-04T18:01:37.234Z,9.63
2019-02-04T18:04:07.694Z,9.23
2019-02-04T18:06:38.098Z,6.57
2019-02-04T18:09:09.640Z,10.40
2019-02-04T18:11:40.590Z,9.43
2019-02-04T18:14:10.923Z,10.33
2019-02-04T18:16:41.849Z,11.97
2019-02-04T18:19:15.085Z,9.77
2019-02-04T18:21:45.605Z,7.43
2019-02-04T18:24:16.132Z,9.17
2019-02-04T18:26:46.502Z,10.70
2019-02-04T18:29:16.923Z,8.27
2019-02-04T18:31:47.233Z,10.20
2019-02-04T18:34:17.555Z,9.50
2019-02-04T18:36:48.216Z,9.97
2019-02-04T18:39:18.854Z,10.23
2019-02-04T18:41:49.177Z,9.97
2019-02-04T18:44:19.532Z,10.10
2019-02-04T18:46:50.143Z,9.73
2019-02-04T18:49:20.573Z,9.90
2019-02-04T18:51:50.853Z,10.73
2019-02-04T18:54:21.141Z,9.97
2019-02-04T18:56:51.421Z,11.90
2019-02-04T18:59:21.715Z,8.93
2019-02-04T19:01:53.836Z,11.47
2019-02-04T19:04:24.028Z,8.67
2019-02-04T19:06:54.373Z,9.23
2019-02-04T19:09:24.807Z,11.50
2019-02-04T19:11:55.493Z,11.43
2019-02-04T19:14:26.097Z,11.80
2019-02-04T19:16:56.402Z,12.30
2019-02-04T19:19:26.700Z,9.47
2019-02-04T19:21:57.018Z,10.13
2019-02-04T19:24:27.309Z,8.97
2019-02-04T19:26:57.705Z,8.50
2019-02-04T19:29:28.390Z,12.33
2019-02-04T19:32:02.804Z,10.30
2019-02-04T19:34:33.640Z,10.03
2019-02-04T19:37:06.721Z,9.17
2019-02-04T19:39:38.350Z,10.07
2019-02-04T19:42:09.786Z,15.00
2019-02-04T19:44:41.547Z,15.87
2019-02-04T19:47:13.804Z,14.93
2019-02-04T19:49:45.776Z,14.33
2019-02-04T19:52:16.231Z,10.10
2019-02-04T19:54:48.594Z,10.17
2019-02-04T19:57:21.337Z,9.30
2019-02-04T19:59:53.197Z,11.77
2019-02-04T20:02:25.009Z,11.73
2019-02-04T20:04:57.199Z,10.17
2019-02-04T20:07:29.083Z,11.20
2019-02-04T20:10:00.640Z,12.10
2019-02-04T20:12:31.402Z,11.37
2019-02-04T20:15:02.460Z,12.23
2019-02-04T20:17:34.246Z,10.00
2019-02-04T20:20:08.532Z,10.70
2019-02-04T20:22:40.607Z,9.50
2019-02-04T20:25:14.213Z,12.47
2019-02-04T20:27:45.545Z,12.07
2019-02-04T20:30:20.339Z,12.23
2019-02-04T20:32:51.602Z,13.07
2019-02-04T20:35:25.083Z,12.60
2019-02-04T20:37:59.822Z,11.70
2019-02-04T20:40:32.853Z,10.63
2019-02-04T20:43:03.904Z,10.23
2019-02-04T20:45:36.404Z,13.63
2019-02-04T20:48:10.594Z,10.03
2019-02-04T20:50:46.167Z,11.90
2019-02-04T20:53:18.724Z,13.67
2019-02-04T20:55:51.224Z,10.53
2019-02-04T20:58:22.725Z,11.63
2019-02-04T21:00:54.663Z,11.43
2019-02-04T21:03:26.723Z,11.63
2019-02-04T21:06:00.443Z,11.37
2019-02-04T21:08:33.085Z,11.13
2019-02-04T21:11:04.709Z,11.13
2019-02-04T21:13:36.395Z,13.77
2019-02-04T21:16:07.558Z,12.30
2019-02-04T21:18:40.001Z,8.80
2019-02-04T21:21:10.330Z,11.20
2019-02-04T21:23:40.741Z,11.13
2019-02-04T21:26:11.109Z,10.50
2019-02-04T21:28:41.487Z,8.83
2019-02-04T21:31:11.955Z,11.93
2019-02-04T21:33:42.253Z,13.83
2019-02-04T21:36:12.533Z,10.73
2019-02-04T21:38:42.848Z,10.87
2019-02-04T21:41:13.152Z,10.47
2019-02-04T21:43:43.514Z,13.23
2019-02-04T21:46:14.208Z,10.03
2019-02-04T21:48:44.505Z,11.10
2019-02-04T21:51:14.777Z,10.53
2019-02-04T21:53:45.164Z,11.07
2019-02-04T21:56:15.460Z,8.67
2019-02-04T21:58:47.495Z,10.87
2019-02-04T22:01:17.701Z,10.43
2019-02-04T22:03:48.097Z,12.67
2019-02-04T22:06:18.372Z,10.70
2019-02-04T22:08:48.672Z,9.47
2019-02-04T22:11:18.958Z,10.83
2019-02-04T22:13:49.406Z,9.53
2019-02-04T22:16:19.702Z,10.07
2019-02-04T22:18:50.024Z,9.10
2019-02-04T22:21:20.311Z,9.60
2019-02-04T22:23:50.605Z,11.90
2019-02-04T22:26:20.890Z,8.37
2019-02-04T22:28:51.262Z,9.97
2019-02-04T22:31:21.978Z,10.63
2019-02-04T22:33:52.229Z,11.27
2019-02-04T22:36:22.514Z,8.90
2019-02-04T22:38:53.134Z,8.93
2019-02-04T22:41:23.453Z,9.63
2019-02-04T22:43:53.747Z,9.27
2019-02-04T22:46:24.045Z,9.30
2019-02-04T22:48:54.340Z,10.63
2019-02-04T22:51:24.620Z,10.30
2019-02-04T22:53:55.103Z,13.03
2019-02-04T22:56:25.810Z,9.37
2019-02-04T22:58:56.089Z,7.73
2019-02-04T23:01:42.037Z,9.43
2019-02-04T23:04:12.709Z,8.07
2019-02-04T23:06:43.521Z,7.10
2019-02-04T23:09:13.914Z,8.60
2019-02-04T23:11:44.375Z,10.20
2019-02-04T23:14:14.717Z,9.47
2019-02-04T23:16:44.996Z,9.93
2019-02-04T23:19:15.683Z,7.97
2019-02-04T23:21:45.906Z,10.30
2019-02-04T23:24:16.211Z,8.03
2019-02-04T23:26:47.967Z,8.67
2019-02-04T23:29:18.792Z,9.87
2019-02-04T23:31:49.083Z,9.37
2019-02-04T23:34:19.341Z,8.00
2019-02-04T23:36:49.649Z,9.40
2019-02-04T23:39:19.957Z,11.77
2019-02-04T23:41:51.196Z,8.20
2019-02-04T23:44:21.726Z,9.23
2019-02-04T23:46:53.518Z,6.57
2019-02-04T23:49:23.840Z,7.87
2019-02-04T23:51:54.676Z,10.07
2019-02-04T23:54:26.577Z,9.53
2019-02-04T23:56:57.876Z,9.17
2019-02-04T23:59:28.808Z,7.87
